Flight Track Log - Related Links

Times and Time Zones

All times are in EDT time to prevent confusion due to time zone crossing. See the TCF6008 flight status page for this flight to view local times or setup timezone preferences in your user account.

Time Position Orientation Groundspeed Altitude Reporting Facility
EDT Latitude Longitude Course Direction KTS MPH feet Rate Location/Type
Wed 07:48:21 PM 42.9333 -87.9333 200° South 158 182 1,600  Level KMKE
Wed 07:50:41 PM 42.8414 -87.8533 147° Southeast 245 282 5,900 2,050 Climbing Chicago Center
Wed 07:51:00 PM 42.8875 -87.2545 185° South  Level Estimated
Wed 07:51:43 PM 42.7842 -87.7778 136° Southeast 282 325 8,500  Level Chicago Center
Wed 07:52:00 PM 42.8720 -87.0940 180° South  Level Estimated
Wed 07:52:45 PM 42.7039 -87.7500 166° South 301 346 11,000  Level Chicago Center
Wed 07:53:00 PM 42.8564 -86.9337 200° South  Level Estimated
Wed 07:53:47 PM 42.6194 -87.7317 171° South 306 352 13,300  Level Chicago Center
Wed 07:54:49 PM 42.5233 -87.7097 170° South 315 362 15,800 1,935 Climbing Chicago Center
Wed 07:55:51 PM 42.4339 -87.6731 163° South 334 384 17,300 1,548 Climbing Chicago Center
Wed 07:56:53 PM 42.3389 -87.6292 161° South 358 412 19,000 1,645 Climbing Chicago Center
Wed 07:57:55 PM 42.2422 -87.5853 161° South 365 420 20,700 1,488 Climbing Chicago Center
Wed 07:58:58 PM 42.1431 -87.5386 161° South 375 432 22,100 1,632 Climbing Chicago Center
Wed 08:00:00 PM 42.0264 -87.4667 155° Southeast 389 448 24,100 1,525 Climbing Chicago Center
Wed 08:01:00 PM 41.9764 -87.3292 116° Southeast 420 483 25,200 1,131 Climbing Chicago Center
Wed 08:02:02 PM 41.9736 -87.1672 91° East 430 495 26,400 1,016 Climbing Chicago Center
Wed 08:03:04 PM 41.9708 -86.9997 91° East 443 510 27,300 968 Climbing Chicago Center
Wed 08:04:06 PM 41.9669 -86.8264 92° East 457 526 28,400 1,024 Climbing Chicago Center
Wed 08:05:07 PM 41.9622 -86.6428 92° East 470 541 29,400 927 Climbing Chicago Center
Wed 08:06:09 PM 41.9589 -86.4614 91° East 481 554 30,300 871 Climbing Chicago Center
Wed 08:07:11 PM 41.9542 -86.2786 92° East 487 560 31,200 919 Climbing Chicago Center
Wed 08:08:13 PM 41.9439 -86.0906 94° East 500 575 32,200 871 Climbing Chicago Center
Wed 08:09:15 PM 41.9222 -85.8700 97° East 496 571 33,000 387 Climbing Chicago Center
Wed 08:10:17 PM 41.9050 -85.6833 97° East 500 575 33,000  Level Chicago Center
Wed 08:11:19 PM 41.8869 -85.4944 97° East 504 580 33,000  Level Chicago Center
Wed 08:12:21 PM 41.8683 -85.3061 97° East 503 579 33,000  Level Chicago Center
Wed 08:13:23 PM 41.8497 -85.1186 98° East 501 577 33,000  Level Chicago Center
Wed 08:14:14 PM 41.8367 -84.9592 96° East 510 587 33,000  Level Cleveland Center
Wed 08:15:14 PM 41.8164 -84.7767 98° East 505 581 33,000  Level Cleveland Center
Wed 08:16:14 PM 41.7961 -84.5858 98° East 505 581 33,000  Level Cleveland Center
Wed 08:17:14 PM 41.7756 -84.4008 98° East 505 581 33,000  Level Cleveland Center
Wed 08:18:14 PM 41.7614 -84.1939 95° East 505 581 33,000  Level Cleveland Center
Wed 08:19:14 PM 41.7506 -84.0039 94° East 505 581 33,000  Level Cleveland Center
Wed 08:20:14 PM 41.7350 -83.8139 96° East 510 587 33,000  Level Cleveland Center
Wed 08:21:14 PM 41.7236 -83.6242 95° East 510 587 33,000  Level Cleveland Center
Wed 08:22:14 PM 41.7078 -83.4314 96° East 510 587 33,000  Level Cleveland Center
Wed 08:23:14 PM 41.6956 -83.2417 95° East 510 587 33,000  Level Cleveland Center
Wed 08:24:14 PM 41.6850 -83.0689 95° East 519 597 33,000  Level Cleveland Center
Wed 08:25:14 PM 41.6681 -82.8792 97° East 524 603 33,000  Level Cleveland Center
Wed 08:26:14 PM 41.6550 -82.6869 95° East 519 597 33,000  Level Cleveland Center
Wed 08:27:14 PM 41.6400 -82.4781 95° East 519 597 33,000  Level Cleveland Center
Wed 08:28:14 PM 41.6261 -82.2917 96° East 514 592 33,000  Level Cleveland Center
Wed 08:29:14 PM 41.6119 -82.1217 96° East 514 592 33,000  Level Cleveland Center
Wed 08:30:14 PM 41.5956 -81.9269 96° East 521 600 33,000  Level Cleveland Center
Wed 08:31:14 PM 41.5769 -81.7378 97° East 521 600 33,000  Level Cleveland Center
Wed 08:32:14 PM 41.5619 -81.5461 96° East 521 600 33,000  Level Cleveland Center
Wed 08:33:14 PM 41.5447 -81.3378 96° East 521 600 33,000  Level Cleveland Center
Wed 08:34:14 PM 41.5269 -81.1517 97° East 516 594 33,000  Level Cleveland Center
Wed 08:35:14 PM 41.5092 -80.9603 97° East 516 594 33,000  Level Cleveland Center
Wed 08:36:14 PM 41.4908 -80.7717 97° East 516 594 33,000  Level Cleveland Center
Wed 08:37:14 PM 41.4742 -80.5803 97° East 521 600 33,000  Level Cleveland Center
Wed 08:38:14 PM 41.4553 -80.3892 97° East 521 600 33,000  Level Cleveland Center
Wed 08:39:14 PM 41.4383 -80.2064 97° East 527 606 33,000  Level Cleveland Center
Wed 08:40:14 PM 41.4186 -80.0100 98° East 532 612 33,000  Level Cleveland Center
Wed 08:41:14 PM 41.3964 -79.7914 98° East 538 619 33,000  Level Cleveland Center
Wed 08:42:14 PM 41.3783 -79.6119 98° East 543 625 33,000  Level Cleveland Center
Wed 08:43:14 PM 41.3578 -79.4131 98° East 543 625 33,000  Level Cleveland Center
Wed 08:44:14 PM 41.3347 -79.2006 98° East 536 617 33,000  Level Cleveland Center
Wed 08:45:14 PM 41.3111 -79.0019 99° East 536 617 33,000  Level Cleveland Center
Wed 08:46:14 PM 41.2942 -78.8253 97° East 536 617 33,000  Level Cleveland Center
Wed 08:47:14 PM 41.2722 -78.6297 98° East 541 623 33,000  Level Cleveland Center
Wed 08:49:29 PM 41.2189 -78.1886 99° East 530 610 33,000  Level New York Center
Wed 08:50:27 PM 41.1969 -78.0014 99° East 522 601 33,000  Level New York Center
Wed 08:51:26 PM 41.1731 -77.8114 99° East 522 601 33,000  Level New York Center
Wed 08:52:28 PM 41.1486 -77.6214 100° East 522 601 33,000  Level New York Center
Wed 08:53:27 PM 41.1242 -77.4314 100° East 522 601 33,000 -800 Level New York Center
Wed 08:54:28 PM 41.1006 -77.2531 100° East 509 586 31,400 -1,916 Descending New York Center
Wed 08:55:26 PM 41.0750 -77.0717 101° East 503 579 29,200 -2,218 Descending New York Center
Wed 08:56:27 PM 41.0511 -76.8903 100° East 503 579 27,000 -2,146 Descending New York Center
Wed 08:57:29 PM 41.0267 -76.7150 100° East 491 565 24,800 -2,066 Descending New York Center
Wed 08:58:29 PM 40.9936 -76.5442 104° East 480 552 22,800 -2,034 Descending New York Center
Wed 08:59:27 PM 40.9531 -76.3869 109° East 467 537 20,800 -1,932 Descending New York Center
Wed 09:00:27 PM 40.9186 -76.2358 107° East 452 520 19,000 -1,700 Descending New York Center
Wed 09:01:27 PM 40.8872 -76.1014 107° East 428 493 17,400 -1,950 Descending New York Center
Wed 09:02:27 PM 40.8483 -75.9447 108° East 417 480 15,100 -2,182 Descending New York Center
Wed 09:03:28 PM 40.8128 -75.7994 108° East 412 474 13,000 -1,091 Descending New York Center
Wed 09:04:28 PM 40.7769 -75.6625 109° East 404 465 12,900 -51 Descending New York Center
Wed 09:05:26 PM 40.7453 -75.5233 107° East 404 465 12,900  Level New York Center
Wed 09:06:27 PM 40.7111 -75.3814 108° East 404 465 12,900 -148 Level New York Center
Wed 09:07:28 PM 40.6833 -75.2400 104° East 404 465 12,600 -850 Descending New York Center
Wed 09:08:27 PM 40.6422 -75.1142 113° Southeast 397 457 11,200 -1,250 Descending New York Center
Wed 09:09:28 PM 40.5828 -75.0311 133° Southeast 346 398 10,100 -645 Descending New York Center
Wed 09:10:28 PM 40.5444 -74.9306 117° Southeast 325 374 9,900  Descending New York Center
Wed 09:11:28 PM 40.5167 -74.8167 108° East 317 365 10,100 100 Climbing New York TRACON
Wed 09:12:28 PM 40.4833 -74.7000 111° Southeast 314 361 10,100 -50 Level New York TRACON
Wed 09:13:28 PM 40.4500 -74.6000 114° Southeast 318 366 10,000 -50 Descending New York TRACON
Wed 09:14:28 PM 40.4500 -74.4833 90° East 341 392 10,000 -50 Level New York TRACON
Wed 09:15:28 PM 40.4833 -74.3667 69° East 340 391 9,900 -700 Descending New York TRACON
Wed 09:16:28 PM 40.5000 -74.2500 79° East 330 380 8,600 -1,050 Descending New York TRACON
Wed 09:17:28 PM 40.5333 -74.1333 69° East 298 343 7,800 -700 Descending New York TRACON
Wed 09:18:28 PM 40.5667 -74.0500 62° Northeast 282 325 7,200 -900 Descending New York TRACON
Wed 09:19:28 PM 40.6333 -74.0167 21° North 249 287 6,000 -1,450 Descending New York TRACON
Wed 09:20:28 PM 40.7000 -74.0167 360° North 246 283 4,300 -950 Descending New York TRACON
Wed 09:21:28 PM 40.7667 -74.0000 11° North 236 272 4,100 -250 Descending New York TRACON
Wed 09:22:28 PM 40.8167 -73.9500 37° Northeast 230 265 3,800 -550 Descending New York TRACON
Wed 09:23:28 PM 40.8833 -73.9167 21° North 225 259 3,000 -400 Descending New York TRACON
Wed 09:24:28 PM 40.9333 -73.8667 37° Northeast 221 254 3,000  Level New York TRACON
Wed 09:25:34 PM 40.9833 -73.9167 323° Northwest 184 212 3,000 -200 Level New York TRACON
Wed 09:26:28 PM 41.0167 -73.9500 323° Northwest 182 209 2,600 -526 Descending New York TRACON
Wed 09:27:28 PM 41.0167 -74.0167 270° West 174 200 2,000 -167 Descending New York TRACON
Wed 09:29:00 PM 40.8490 -73.9157 180° South  Level Estimated
Wed 09:29:28 PM 40.9500 -74.0833 180° South 163 188 2,100  Level New York TRACON
Wed 09:30:28 PM 40.9000 -74.0667 166° South 179 206 2,100  Level New York TRACON
Wed 09:31:28 PM 40.8667 -74.0333 143° Southeast 177 204 2,100 -100 Level New York TRACON
Wed 09:32:28 PM 40.8333 -73.9833 131° Southeast 185 213 1,900 -550 Descending New York TRACON
Wed 09:33:28 PM 40.8000 -73.9333 131° Southeast 144 166 1,000 -900 Descending New York TRACON

Login

Don't have an account? Register now (free) for customized features, flight alerts, and more!